sensor_id;sensor_type;location;lat;lon;timestamp;pressure;altitude;pressure_sealevel;temperature;humidity
32083;BME280;18597;48.328;7.932;2023-09-18T00:01:58;98835.41;;;17.71;nan
32083;BME280;18597;48.328;7.932;2023-09-18T00:04:23;98838.19;;;17.78;nan
32083;BME280;18597;48.328;7.932;2023-09-18T00:06:49;98844.16;;;17.73;nan
32083;BME280;18597;48.328;7.932;2023-09-18T00:09:15;98848.44;;;17.68;nan
32083;BME280;18597;48.328;7.932;2023-09-18T00:11:41;98849.72;;;17.93;nan
32083;BME280;18597;48.328;7.932;2023-09-18T00:14:08;98865.72;;;17.95;nan
32083;BME280;18597;48.328;7.932;2023-09-18T00:16:35;98873.94;;;18.08;nan
32083;BME280;18597;48.328;7.932;2023-09-18T00:19:01;98869.34;;;18.09;nan
32083;BME280;18597;48.328;7.932;2023-09-18T00:21:28;98870.63;;;18.13;nan
32083;BME280;18597;48.328;7.932;2023-09-18T00:23:56;98854.94;;;18.36;nan
32083;BME280;18597;48.328;7.932;2023-09-18T00:26:24;98862.06;;;18.37;nan
32083;BME280;18597;48.328;7.932;2023-09-18T00:28:50;98856.22;;;18.40;nan
32083;BME280;18597;48.328;7.932;2023-09-18T00:31:16;98859.78;;;18.41;nan
32083;BME280;18597;48.328;7.932;2023-09-18T00:33:42;98868.91;;;18.40;nan
32083;BME280;18597;48.328;7.932;2023-09-18T00:36:08;98863.97;;;18.50;nan
32083;BME280;18597;48.328;7.932;2023-09-18T00:38:33;98857.97;;;18.54;nan
32083;BME280;18597;48.328;7.932;2023-09-18T00:40:59;98858.81;;;18.55;nan
32083;BME280;18597;48.328;7.932;2023-09-18T00:43:25;98846.59;;;18.66;nan
32083;BME280;18597;48.328;7.932;2023-09-18T00:45:51;98826.09;;;18.91;nan
32083;BME280;18597;48.328;7.932;2023-09-18T00:48:17;98843.69;;;18.74;nan
32083;BME280;18597;48.328;7.932;2023-09-18T00:50:45;98842.06;;;18.79;nan
32083;BME280;18597;48.328;7.932;2023-09-18T00:53:17;98854.63;;;18.52;nan
32083;BME280;18597;48.328;7.932;2023-09-18T00:55:43;98858.47;;;18.30;nan
32083;BME280;18597;48.328;7.932;2023-09-18T00:58:09;98857.56;;;18.16;nan
32083;BME280;18597;48.328;7.932;2023-09-18T01:00:35;98859.91;;;17.98;nan
32083;BME280;18597;48.328;7.932;2023-09-18T01:03:02;98855.50;;;17.90;nan
32083;BME280;18597;48.328;7.932;2023-09-18T01:05:32;98859.91;;;17.91;nan
32083;BME280;18597;48.328;7.932;2023-09-18T01:07:59;98862.66;;;18.05;nan
32083;BME280;18597;48.328;7.932;2023-09-18T01:10:33;98848.47;;;17.96;nan
32083;BME280;18597;48.328;7.932;2023-09-18T01:13:10;98878.47;;;18.01;nan
32083;BME280;18597;48.328;7.932;2023-09-18T01:15:48;98894.06;;;18.06;nan
32083;BME280;18597;48.328;7.932;2023-09-18T01:18:17;98904.34;;;18.17;nan
32083;BME280;18597;48.328;7.932;2023-09-18T01:20:44;98899.19;;;18.28;nan
32083;BME280;18597;48.328;7.932;2023-09-18T01:23:10;98894.03;;;18.34;nan
32083;BME280;18597;48.328;7.932;2023-09-18T01:25:37;98897.38;;;18.29;nan
32083;BME280;18597;48.328;7.932;2023-09-18T01:28:03;98890.91;;;18.30;nan
32083;BME280;18597;48.328;7.932;2023-09-18T01:30:29;98876.81;;;18.41;nan
32083;BME280;18597;48.328;7.932;2023-09-18T01:32:58;98866.63;;;18.43;nan
32083;BME280;18597;48.328;7.932;2023-09-18T01:35:26;98864.59;;;18.45;nan
32083;BME280;18597;48.328;7.932;2023-09-18T01:37:57;98877.44;;;18.43;nan
32083;BME280;18597;48.328;7.932;2023-09-18T01:40:24;98875.44;;;18.52;nan
32083;BME280;18597;48.328;7.932;2023-09-18T01:42:51;98902.44;;;18.45;nan
32083;BME280;18597;48.328;7.932;2023-09-18T01:45:17;98901.78;;;18.43;nan
32083;BME280;18597;48.328;7.932;2023-09-18T01:47:43;98907.06;;;18.51;nan
32083;BME280;18597;48.328;7.932;2023-09-18T01:50:09;98910.16;;;18.48;nan
32083;BME280;18597;48.328;7.932;2023-09-18T01:52:35;98894.22;;;18.60;nan
32083;BME280;18597;48.328;7.932;2023-09-18T01:55:02;98903.88;;;18.41;nan
32083;BME280;18597;48.328;7.932;2023-09-18T01:57:30;98898.22;;;18.36;nan
32083;BME280;18597;48.328;7.932;2023-09-18T01:59:55;98905.31;;;18.44;nan
32083;BME280;18597;48.328;7.932;2023-09-18T02:02:21;98888.28;;;18.43;nan
32083;BME280;18597;48.328;7.932;2023-09-18T02:04:47;98873.69;;;18.38;nan
32083;BME280;18597;48.328;7.932;2023-09-18T02:07:13;98865.06;;;18.21;nan
32083;BME280;18597;48.328;7.932;2023-09-18T02:09:39;98855.53;;;17.97;nan
32083;BME280;18597;48.328;7.932;2023-09-18T02:12:05;98860.13;;;17.96;nan
32083;BME280;18597;48.328;7.932;2023-09-18T02:14:31;98869.34;;;17.81;nan
32083;BME280;18597;48.328;7.932;2023-09-18T02:16:57;98898.09;;;17.88;nan
32083;BME280;18597;48.328;7.932;2023-09-18T02:19:23;98899.22;;;17.72;nan
32083;BME280;18597;48.328;7.932;2023-09-18T02:21:49;98908.25;;;17.65;nan
32083;BME280;18597;48.328;7.932;2023-09-18T02:24:15;98915.19;;;17.53;nan
32083;BME280;18597;48.328;7.932;2023-09-18T02:26:41;98903.50;;;17.45;nan
32083;BME280;18597;48.328;7.932;2023-09-18T02:29:09;98890.78;;;17.39;nan
32083;BME280;18597;48.328;7.932;2023-09-18T02:31:38;98891.44;;;17.41;nan
32083;BME280;18597;48.328;7.932;2023-09-18T02:34:04;98907.06;;;17.46;nan
32083;BME280;18597;48.328;7.932;2023-09-18T02:36:30;98913.16;;;17.55;nan
32083;BME280;18597;48.328;7.932;2023-09-18T02:38:56;98923.78;;;17.56;nan
32083;BME280;18597;48.328;7.932;2023-09-18T02:41:22;98929.72;;;17.52;nan
32083;BME280;18597;48.328;7.932;2023-09-18T02:43:47;98958.88;;;17.56;nan
32083;BME280;18597;48.328;7.932;2023-09-18T02:46:13;98990.44;;;17.56;nan
32083;BME280;18597;48.328;7.932;2023-09-18T02:48:39;99042.03;;;17.61;nan
32083;BME280;18597;48.328;7.932;2023-09-18T02:51:05;99164.22;;;17.92;nan
32083;BME280;18597;48.328;7.932;2023-09-18T02:53:31;99145.81;;;18.02;nan
32083;BME280;18597;48.328;7.932;2023-09-18T02:55:58;99120.09;;;18.28;nan
32083;BME280;18597;48.328;7.932;2023-09-18T02:58:25;99102.78;;;18.22;nan
32083;BME280;18597;48.328;7.932;2023-09-18T03:00:53;99087.50;;;18.36;nan
32083;BME280;18597;48.328;7.932;2023-09-18T03:03:19;99084.16;;;18.34;nan
32083;BME280;18597;48.328;7.932;2023-09-18T03:05:45;99072.38;;;18.42;nan
32083;BME280;18597;48.328;7.932;2023-09-18T03:08:14;99062.44;;;18.49;nan
32083;BME280;18597;48.328;7.932;2023-09-18T03:10:42;99049.97;;;18.48;nan
32083;BME280;18597;48.328;7.932;2023-09-18T03:13:14;99065.75;;;18.44;nan
32083;BME280;18597;48.328;7.932;2023-09-18T03:15:45;99054.06;;;18.44;nan
32083;BME280;18597;48.328;7.932;2023-09-18T03:18:12;99009.78;;;18.45;nan
32083;BME280;18597;48.328;7.932;2023-09-18T03:20:39;98982.28;;;18.41;nan
32083;BME280;18597;48.328;7.932;2023-09-18T03:23:05;98978.69;;;18.34;nan
32083;BME280;18597;48.328;7.932;2023-09-18T03:25:31;98981.41;;;18.34;nan
32083;BME280;18597;48.328;7.932;2023-09-18T03:27:57;98984.31;;;18.33;nan
32083;BME280;18597;48.328;7.932;2023-09-18T03:30:24;98973.28;;;18.34;nan
32083;BME280;18597;48.328;7.932;2023-09-18T03:32:51;98964.97;;;18.29;nan
32083;BME280;18597;48.328;7.932;2023-09-18T03:35:18;98976.78;;;18.28;nan
32083;BME280;18597;48.328;7.932;2023-09-18T03:37:53;98966.38;;;18.25;nan
32083;BME280;18597;48.328;7.932;2023-09-18T03:40:20;98947.19;;;18.20;nan
32083;BME280;18597;48.328;7.932;2023-09-18T03:42:46;98943.28;;;18.22;nan
32083;BME280;18597;48.328;7.932;2023-09-18T03:45:12;98935.75;;;18.18;nan
32083;BME280;18597;48.328;7.932;2023-09-18T03:47:40;98922.91;;;18.26;nan
32083;BME280;18597;48.328;7.932;2023-09-18T03:50:08;98920.00;;;18.21;nan
32083;BME280;18597;48.328;7.932;2023-09-18T03:52:35;98893.78;;;18.22;nan
32083;BME280;18597;48.328;7.932;2023-09-18T03:55:01;98891.25;;;18.20;nan
32083;BME280;18597;48.328;7.932;2023-09-18T03:57:27;98884.38;;;18.18;nan
32083;BME280;18597;48.328;7.932;2023-09-18T03:59:53;98889.38;;;18.14;nan
32083;BME280;18597;48.328;7.932;2023-09-18T04:02:20;98891.09;;;18.22;nan
32083;BME280;18597;48.328;7.932;2023-09-18T04:04:46;98887.50;;;18.15;nan
32083;BME280;18597;48.328;7.932;2023-09-18T04:07:11;98883.56;;;18.17;nan
32083;BME280;18597;48.328;7.932;2023-09-18T04:09:42;98860.88;;;18.18;nan
32083;BME280;18597;48.328;7.932;2023-09-18T04:12:08;98840.88;;;18.13;nan
32083;BME280;18597;48.328;7.932;2023-09-18T04:14:35;98829.06;;;18.14;nan
32083;BME280;18597;48.328;7.932;2023-09-18T04:17:01;98835.09;;;18.16;nan
32083;BME280;18597;48.328;7.932;2023-09-18T04:19:28;98864.00;;;18.15;nan
32083;BME280;18597;48.328;7.932;2023-09-18T04:21:54;98866.13;;;18.26;nan
32083;BME280;18597;48.328;7.932;2023-09-18T04:24:21;98869.34;;;18.37;nan
32083;BME280;18597;48.328;7.932;2023-09-18T04:26:47;98893.16;;;18.26;nan
32083;BME280;18597;48.328;7.932;2023-09-18T04:29:13;98900.91;;;18.29;nan
32083;BME280;18597;48.328;7.932;2023-09-18T04:31:39;98903.00;;;18.34;nan
32083;BME280;18597;48.328;7.932;2023-09-18T04:34:05;98906.53;;;18.35;nan
32083;BME280;18597;48.328;7.932;2023-09-18T04:36:31;98894.88;;;18.34;nan
32083;BME280;18597;48.328;7.932;2023-09-18T04:38:57;98905.66;;;18.27;nan
32083;BME280;18597;48.328;7.932;2023-09-18T04:41:23;98891.75;;;18.30;nan
32083;BME280;18597;48.328;7.932;2023-09-18T04:43:49;98858.91;;;18.34;nan
32083;BME280;18597;48.328;7.932;2023-09-18T04:46:16;98870.97;;;18.31;nan
32083;BME280;18597;48.328;7.932;2023-09-18T04:48:42;98870.75;;;18.33;nan
32083;BME280;18597;48.328;7.932;2023-09-18T04:51:08;98862.84;;;18.31;nan
32083;BME280;18597;48.328;7.932;2023-09-18T04:53:33;98856.81;;;18.29;nan
32083;BME280;18597;48.328;7.932;2023-09-18T04:55:59;98874.91;;;18.35;nan
32083;BME280;18597;48.328;7.932;2023-09-18T04:58:26;98876.38;;;18.31;nan
32083;BME280;18597;48.328;7.932;2023-09-18T05:00:55;98878.66;;;18.34;nan
32083;BME280;18597;48.328;7.932;2023-09-18T05:03:22;98877.44;;;18.37;nan
32083;BME280;18597;48.328;7.932;2023-09-18T05:05:48;98874.31;;;18.40;nan
32083;BME280;18597;48.328;7.932;2023-09-18T05:08:15;98870.78;;;18.39;nan
32083;BME280;18597;48.328;7.932;2023-09-18T05:10:40;98877.81;;;18.34;nan
32083;BME280;18597;48.328;7.932;2023-09-18T05:13:06;98873.25;;;18.34;nan
32083;BME280;18597;48.328;7.932;2023-09-18T05:15:33;98877.63;;;18.35;nan
32083;BME280;18597;48.328;7.932;2023-09-18T05:18:00;98884.84;;;18.28;nan
32083;BME280;18597;48.328;7.932;2023-09-18T05:20:28;98885.88;;;18.27;nan
32083;BME280;18597;48.328;7.932;2023-09-18T05:22:56;98899.03;;;18.30;nan
32083;BME280;18597;48.328;7.932;2023-09-18T05:25:24;98901.16;;;18.41;nan
32083;BME280;18597;48.328;7.932;2023-09-18T05:27:52;98909.28;;;18.41;nan
32083;BME280;18597;48.328;7.932;2023-09-18T05:30:26;98924.41;;;18.36;nan
32083;BME280;18597;48.328;7.932;2023-09-18T05:32:58;98902.94;;;18.27;nan
32083;BME280;18597;48.328;7.932;2023-09-18T05:35:43;98911.72;;;18.29;nan
32083;BME280;18597;48.328;7.932;2023-09-18T05:38:12;98904.59;;;18.22;nan
32083;BME280;18597;48.328;7.932;2023-09-18T05:40:40;98904.97;;;18.19;nan
32083;BME280;18597;48.328;7.932;2023-09-18T05:43:06;98919.94;;;18.15;nan
32083;BME280;18597;48.328;7.932;2023-09-18T05:45:33;98919.09;;;18.14;nan
32083;BME280;18597;48.328;7.932;2023-09-18T05:47:59;98936.94;;;18.09;nan
32083;BME280;18597;48.328;7.932;2023-09-18T05:50:34;98949.16;;;18.05;nan
32083;BME280;18597;48.328;7.932;2023-09-18T05:53:01;98936.31;;;18.07;nan
32083;BME280;18597;48.328;7.932;2023-09-18T05:55:32;98942.97;;;18.11;nan
32083;BME280;18597;48.328;7.932;2023-09-18T05:57:58;98944.41;;;18.07;nan
32083;BME280;18597;48.328;7.932;2023-09-18T06:00:24;98954.56;;;18.05;nan
32083;BME280;18597;48.328;7.932;2023-09-18T06:02:50;98953.78;;;18.11;nan
32083;BME280;18597;48.328;7.932;2023-09-18T06:05:17;98960.84;;;18.12;nan
32083;BME280;18597;48.328;7.932;2023-09-18T06:07:48;98956.13;;;18.14;nan
32083;BME280;18597;48.328;7.932;2023-09-18T06:10:14;98943.59;;;18.13;nan
32083;BME280;18597;48.328;7.932;2023-09-18T06:12:40;98954.63;;;18.11;nan
32083;BME280;18597;48.328;7.932;2023-09-18T06:15:08;98967.25;;;18.04;nan
32083;BME280;18597;48.328;7.932;2023-09-18T06:17:40;98964.09;;;18.00;nan
32083;BME280;18597;48.328;7.932;2023-09-18T06:20:08;98959.06;;;17.97;nan
32083;BME280;18597;48.328;7.932;2023-09-18T06:22:36;98976.53;;;17.95;nan
32083;BME280;18597;48.328;7.932;2023-09-18T06:25:04;98990.16;;;18.08;nan
32083;BME280;18597;48.328;7.932;2023-09-18T06:27:30;98996.84;;;18.12;nan
32083;BME280;18597;48.328;7.932;2023-09-18T06:29:58;98998.91;;;18.10;nan
32083;BME280;18597;48.328;7.932;2023-09-18T06:32:23;99000.72;;;18.03;nan
32083;BME280;18597;48.328;7.932;2023-09-18T06:34:49;99005.00;;;17.97;nan
32083;BME280;18597;48.328;7.932;2023-09-18T06:37:15;99000.56;;;18.11;nan
32083;BME280;18597;48.328;7.932;2023-09-18T06:39:41;99005.78;;;18.13;nan
32083;BME280;18597;48.328;7.932;2023-09-18T06:42:07;99011.00;;;18.14;nan
32083;BME280;18597;48.328;7.932;2023-09-18T06:44:34;99013.56;;;18.22;nan
32083;BME280;18597;48.328;7.932;2023-09-18T06:47:00;99007.66;;;18.12;nan
32083;BME280;18597;48.328;7.932;2023-09-18T06:49:26;99018.28;;;18.14;nan
32083;BME280;18597;48.328;7.932;2023-09-18T06:51:53;99019.13;;;18.14;nan
32083;BME280;18597;48.328;7.932;2023-09-18T06:54:18;99017.94;;;18.23;nan
32083;BME280;18597;48.328;7.932;2023-09-18T06:56:45;99024.69;;;18.13;nan
32083;BME280;18597;48.328;7.932;2023-09-18T06:59:11;99025.59;;;18.20;nan
32083;BME280;18597;48.328;7.932;2023-09-18T07:01:38;99010.19;;;18.20;nan
32083;BME280;18597;48.328;7.932;2023-09-18T07:04:04;99013.94;;;18.19;nan
32083;BME280;18597;48.328;7.932;2023-09-18T07:06:30;99018.28;;;18.14;nan
32083;BME280;18597;48.328;7.932;2023-09-18T07:08:56;99027.03;;;18.16;nan
32083;BME280;18597;48.328;7.932;2023-09-18T07:11:22;99025.09;;;18.10;nan
32083;BME280;18597;48.328;7.932;2023-09-18T07:13:48;99014.69;;;18.07;nan
32083;BME280;18597;48.328;7.932;2023-09-18T07:16:13;99008.81;;;18.03;nan
32083;BME280;18597;48.328;7.932;2023-09-18T07:18:39;98997.75;;;17.98;nan
32083;BME280;18597;48.328;7.932;2023-09-18T07:21:05;98992.09;;;17.93;nan
32083;BME280;18597;48.328;7.932;2023-09-18T07:23:31;98971.69;;;17.90;nan
32083;BME280;18597;48.328;7.932;2023-09-18T07:25:57;98968.34;;;17.88;nan
32083;BME280;18597;48.328;7.932;2023-09-18T07:28:24;98975.41;;;17.89;nan
32083;BME280;18597;48.328;7.932;2023-09-18T07:30:50;98987.88;;;17.84;nan
32083;BME280;18597;48.328;7.932;2023-09-18T07:33:16;99023.94;;;17.97;nan
32083;BME280;18597;48.328;7.932;2023-09-18T07:35:47;99011.16;;;18.06;nan
32083;BME280;18597;48.328;7.932;2023-09-18T07:38:13;98980.06;;;17.95;nan
32083;BME280;18597;48.328;7.932;2023-09-18T07:40:39;98994.53;;;17.88;nan
32083;BME280;18597;48.328;7.932;2023-09-18T07:43:05;98993.44;;;17.82;nan
32083;BME280;18597;48.328;7.932;2023-09-18T07:45:31;98992.94;;;17.72;nan
32083;BME280;18597;48.328;7.932;2023-09-18T07:47:57;98960.38;;;17.80;nan
32083;BME280;18597;48.328;7.932;2023-09-18T07:50:22;98956.84;;;17.80;nan
32083;BME280;18597;48.328;7.932;2023-09-18T07:52:48;98971.47;;;17.85;nan
32083;BME280;18597;48.328;7.932;2023-09-18T07:55:14;98985.66;;;17.94;nan
32083;BME280;18597;48.328;7.932;2023-09-18T07:57:41;98990.34;;;18.07;nan
32083;BME280;18597;48.328;7.932;2023-09-18T08:00:07;99008.75;;;18.18;nan
32083;BME280;18597;48.328;7.932;2023-09-18T08:02:35;99008.16;;;18.22;nan
32083;BME280;18597;48.328;7.932;2023-09-18T08:05:01;98994.50;;;18.30;nan
32083;BME280;18597;48.328;7.932;2023-09-18T08:07:28;98990.06;;;18.23;nan
32083;BME280;18597;48.328;7.932;2023-09-18T08:09:54;98972.97;;;18.16;nan
32083;BME280;18597;48.328;7.932;2023-09-18T08:12:20;98983.09;;;18.07;nan
32083;BME280;18597;48.328;7.932;2023-09-18T08:14:45;98977.06;;;18.12;nan
32083;BME280;18597;48.328;7.932;2023-09-18T08:17:12;98980.16;;;18.30;nan
32083;BME280;18597;48.328;7.932;2023-09-18T08:19:38;98991.34;;;18.55;nan
32083;BME280;18597;48.328;7.932;2023-09-18T08:22:05;98993.56;;;18.73;nan
32083;BME280;18597;48.328;7.932;2023-09-18T08:24:31;98999.81;;;18.73;nan
32083;BME280;18597;48.328;7.932;2023-09-18T08:26:57;99002.97;;;18.77;nan
32083;BME280;18597;48.328;7.932;2023-09-18T08:29:23;98997.78;;;18.82;nan
32083;BME280;18597;48.328;7.932;2023-09-18T08:31:49;99008.75;;;18.74;nan
32083;BME280;18597;48.328;7.932;2023-09-18T08:34:16;99040.22;;;18.75;nan
32083;BME280;18597;48.328;7.932;2023-09-18T08:36:42;99037.16;;;18.84;nan
32083;BME280;18597;48.328;7.932;2023-09-18T08:39:08;99060.66;;;18.84;nan
32083;BME280;18597;48.328;7.932;2023-09-18T08:41:42;99093.53;;;18.81;nan
32083;BME280;18597;48.328;7.932;2023-09-18T08:44:08;99075.97;;;18.70;nan
32083;BME280;18597;48.328;7.932;2023-09-18T08:46:37;99085.97;;;18.70;nan
32083;BME280;18597;48.328;7.932;2023-09-18T08:49:04;99070.44;;;18.85;nan
32083;BME280;18597;48.328;7.932;2023-09-18T08:51:33;99070.84;;;18.82;nan
32083;BME280;18597;48.328;7.932;2023-09-18T08:54:00;99062.34;;;18.85;nan
32083;BME280;18597;48.328;7.932;2023-09-18T08:56:27;99046.69;;;18.80;nan
32083;BME280;18597;48.328;7.932;2023-09-18T08:58:54;99045.72;;;18.95;nan
32083;BME280;18597;48.328;7.932;2023-09-18T09:01:20;99039.91;;;18.91;nan
32083;BME280;18597;48.328;7.932;2023-09-18T09:03:46;99049.47;;;18.94;nan
32083;BME280;18597;48.328;7.932;2023-09-18T09:06:13;99009.19;;;19.19;nan
32083;BME280;18597;48.328;7.932;2023-09-18T09:08:39;98993.88;;;18.91;nan
32083;BME280;18597;48.328;7.932;2023-09-18T09:11:05;99002.06;;;19.04;nan
32083;BME280;18597;48.328;7.932;2023-09-18T09:13:31;99008.84;;;19.28;nan
32083;BME280;18597;48.328;7.932;2023-09-18T09:15:58;99013.06;;;19.44;nan
32083;BME280;18597;48.328;7.932;2023-09-18T09:18:28;99008.09;;;19.54;nan
32083;BME280;18597;48.328;7.932;2023-09-18T09:20:57;99017.34;;;19.73;nan
32083;BME280;18597;48.328;7.932;2023-09-18T09:23:27;99026.56;;;19.92;nan
32083;BME280;18597;48.328;7.932;2023-09-18T09:26:00;99016.75;;;20.17;nan
32083;BME280;18597;48.328;7.932;2023-09-18T09:28:37;99011.34;;;20.37;nan
32083;BME280;18597;48.328;7.932;2023-09-18T09:31:03;99011.16;;;20.52;nan
32083;BME280;18597;48.328;7.932;2023-09-18T09:33:30;99008.03;;;20.55;nan
32083;BME280;18597;48.328;7.932;2023-09-18T09:35:57;99003.44;;;20.42;nan
32083;BME280;18597;48.328;7.932;2023-09-18T09:38:32;99012.84;;;20.46;nan
32083;BME280;18597;48.328;7.932;2023-09-18T09:41:00;99015.34;;;20.35;nan
32083;BME280;18597;48.328;7.932;2023-09-18T09:43:31;99010.72;;;20.29;nan
32083;BME280;18597;48.328;7.932;2023-09-18T09:46:01;99041.41;;;20.22;nan
32083;BME280;18597;48.328;7.932;2023-09-18T09:48:28;99044.94;;;20.30;nan
32083;BME280;18597;48.328;7.932;2023-09-18T09:50:59;99026.38;;;20.13;nan
32083;BME280;18597;48.328;7.932;2023-09-18T09:53:46;99009.91;;;20.21;nan
32083;BME280;18597;48.328;7.932;2023-09-18T09:56:14;99019.72;;;20.36;nan
32083;BME280;18597;48.328;7.932;2023-09-18T09:58:41;99008.44;;;20.59;nan
32083;BME280;18597;48.328;7.932;2023-09-18T10:01:12;99000.47;;;20.84;nan
32083;BME280;18597;48.328;7.932;2023-09-18T10:03:44;99009.78;;;21.08;nan
32083;BME280;18597;48.328;7.932;2023-09-18T10:06:11;98994.47;;;21.26;nan
32083;BME280;18597;48.328;7.932;2023-09-18T10:08:39;98996.91;;;21.48;nan
32083;BME280;18597;48.328;7.932;2023-09-18T10:11:08;98995.09;;;21.73;nan
32083;BME280;18597;48.328;7.932;2023-09-18T10:13:47;99003.69;;;22.02;nan
32083;BME280;18597;48.328;7.932;2023-09-18T10:16:18;99002.72;;;22.21;nan
32083;BME280;18597;48.328;7.932;2023-09-18T10:21:45;98991.59;;;22.29;100.00
32083;BME280;18597;48.328;7.932;2023-09-18T10:26:59;98984.47;;;22.71;100.00
32083;BME280;18597;48.328;7.932;2023-09-18T10:29:25;98991.34;;;22.99;100.00
32083;BME280;18597;48.328;7.932;2023-09-18T10:31:53;99011.22;;;23.18;100.00
32083;BME280;18597;48.328;7.932;2023-09-18T10:34:20;99001.00;;;23.32;100.00
32083;BME280;18597;48.328;7.932;2023-09-18T10:36:48;98988.56;;;23.54;100.00
32083;BME280;18597;48.328;7.932;2023-09-18T10:39:14;98997.56;;;23.73;100.00
32083;BME280;18597;48.328;7.932;2023-09-18T10:41:48;98991.88;;;23.86;100.00
32083;BME280;18597;48.328;7.932;2023-09-18T10:44:15;98984.34;;;24.00;100.00
32083;BME280;18597;48.328;7.932;2023-09-18T10:46:45;98982.94;;;24.09;100.00
32083;BME280;18597;48.328;7.932;2023-09-18T10:49:12;98985.56;;;24.16;100.00
32083;BME280;18597;48.328;7.932;2023-09-18T10:51:38;98989.53;;;24.43;100.00
32083;BME280;18597;48.328;7.932;2023-09-18T10:54:09;98992.63;;;24.58;96.41
32083;BME280;18597;48.328;7.932;2023-09-18T10:56:36;98985.16;;;24.54;99.54
32083;BME280;18597;48.328;7.932;2023-09-18T10:59:06;98994.88;;;24.85;100.00
32083;BME280;18597;48.328;7.932;2023-09-18T11:01:35;98996.75;;;25.08;100.00
32083;BME280;18597;48.328;7.932;2023-09-18T11:04:05;98997.63;;;25.37;92.76
32083;BME280;18597;48.328;7.932;2023-09-18T11:09:32;98999.78;;;25.75;83.67
32083;BME280;18597;48.328;7.932;2023-09-18T11:12:05;98997.03;;;26.04;86.18
32083;BME280;18597;48.328;7.932;2023-09-18T11:14:57;98987.72;;;25.88;66.53
32083;BME280;18597;48.328;7.932;2023-09-18T11:17:37;98990.28;;;25.78;73.19
32083;BME280;18597;48.328;7.932;2023-09-18T11:23:16;98992.53;;;25.97;68.38
32083;BME280;18597;48.328;7.932;2023-09-18T11:25:43;98983.13;;;25.48;75.19
32083;BME280;18597;48.328;7.932;2023-09-18T11:28:16;98993.31;;;25.53;69.57
32083;BME280;18597;48.328;7.932;2023-09-18T11:30:52;98979.31;;;25.49;72.62
32083;BME280;18597;48.328;7.932;2023-09-18T11:33:37;98989.75;;;25.52;72.43
32083;BME280;18597;48.328;7.932;2023-09-18T11:36:12;98992.44;;;25.64;73.27
32083;BME280;18597;48.328;7.932;2023-09-18T11:38:58;99004.78;;;25.78;69.48
32083;BME280;18597;48.328;7.932;2023-09-18T11:41:31;98997.88;;;25.47;70.58
32083;BME280;18597;48.328;7.932;2023-09-18T11:46:49;99017.19;;;25.57;64.56
32083;BME280;18597;48.328;7.932;2023-09-18T11:49:25;99002.28;;;25.77;63.77
32083;BME280;18597;48.328;7.932;2023-09-18T11:51:52;99011.38;;;25.94;61.51
32083;BME280;18597;48.328;7.932;2023-09-18T11:54:18;99016.44;;;25.73;59.73
32083;BME280;18597;48.328;7.932;2023-09-18T11:56:44;99007.25;;;26.08;61.38
32083;BME280;18597;48.328;7.932;2023-09-18T11:59:11;99003.13;;;26.22;59.33
32083;BME280;18597;48.328;7.932;2023-09-18T12:01:38;99003.13;;;26.22;59.89
32083;BME280;18597;48.328;7.932;2023-09-18T12:04:05;99011.84;;;25.91;60.82
32083;BME280;18597;48.328;7.932;2023-09-18T12:06:37;99005.91;;;25.54;61.77
32083;BME280;18597;48.328;7.932;2023-09-18T12:09:06;99006.22;;;25.97;62.57
32083;BME280;18597;48.328;7.932;2023-09-18T12:11:33;99005.25;;;26.37;61.61
32083;BME280;18597;48.328;7.932;2023-09-18T12:14:01;98994.91;;;26.56;57.67
32083;BME280;18597;48.328;7.932;2023-09-18T12:16:28;98995.91;;;26.50;52.87
32083;BME280;18597;48.328;7.932;2023-09-18T12:18:54;98994.03;;;26.05;56.20
32083;BME280;18597;48.328;7.932;2023-09-18T12:21:20;98985.88;;;26.39;55.93
32083;BME280;18597;48.328;7.932;2023-09-18T12:23:46;98991.22;;;26.34;53.35
32083;BME280;18597;48.328;7.932;2023-09-18T12:26:14;98990.75;;;26.70;56.09
32083;BME280;18597;48.328;7.932;2023-09-18T12:28:44;98994.31;;;27.09;57.91
32083;BME280;18597;48.328;7.932;2023-09-18T12:31:13;98980.56;;;26.88;54.75
32083;BME280;18597;48.328;7.932;2023-09-18T12:33:41;98969.91;;;26.36;55.44
32083;BME280;18597;48.328;7.932;2023-09-18T12:36:08;98956.84;;;25.76;57.49
32083;BME280;18597;48.328;7.932;2023-09-18T12:38:34;98953.22;;;26.20;58.71
32083;BME280;18597;48.328;7.932;2023-09-18T12:41:02;98959.22;;;26.51;54.69
32083;BME280;18597;48.328;7.932;2023-09-18T12:43:46;98969.75;;;26.42;56.88
32083;BME280;18597;48.328;7.932;2023-09-18T12:46:12;98964.94;;;26.49;58.11
32083;BME280;18597;48.328;7.932;2023-09-18T12:48:40;98954.72;;;26.28;55.73
32083;BME280;18597;48.328;7.932;2023-09-18T12:51:12;98963.09;;;25.88;58.36
32083;BME280;18597;48.328;7.932;2023-09-18T12:53:39;98957.09;;;25.91;55.59
32083;BME280;18597;48.328;7.932;2023-09-18T12:56:11;98945.50;;;25.55;62.16
32083;BME280;18597;48.328;7.932;2023-09-18T12:58:40;98954.63;;;25.89;62.04
32083;BME280;18597;48.328;7.932;2023-09-18T13:01:08;98956.78;;;26.21;57.97
32083;BME280;18597;48.328;7.932;2023-09-18T13:03:42;98969.19;;;26.40;57.38
32083;BME280;18597;48.328;7.932;2023-09-18T13:06:16;98960.63;;;26.92;56.76
32083;BME280;18597;48.328;7.932;2023-09-18T13:08:44;98949.97;;;26.96;53.22
32083;BME280;18597;48.328;7.932;2023-09-18T13:11:10;98935.59;;;26.67;53.76
32083;BME280;18597;48.328;7.932;2023-09-18T13:13:37;98937.28;;;26.34;55.80
32083;BME280;18597;48.328;7.932;2023-09-18T13:16:07;98917.56;;;25.82;57.53
32083;BME280;18597;48.328;7.932;2023-09-18T13:18:34;98929.69;;;25.86;61.79
32083;BME280;18597;48.328;7.932;2023-09-18T13:21:10;98922.56;;;25.28;60.35
32083;BME280;18597;48.328;7.932;2023-09-18T13:23:37;98930.19;;;25.26;58.54
32083;BME280;18597;48.328;7.932;2023-09-18T13:26:05;98931.34;;;25.30;59.65
32083;BME280;18597;48.328;7.932;2023-09-18T13:28:31;98926.16;;;25.45;62.66
32083;BME280;18597;48.328;7.932;2023-09-18T13:31:01;98924.47;;;25.27;60.43
32083;BME280;18597;48.328;7.932;2023-09-18T13:33:30;98926.38;;;25.55;60.85
32083;BME280;18597;48.328;7.932;2023-09-18T13:35:58;98922.06;;;25.59;60.67